Time;durP1;ratioP1;P1;durP2;ratioP2;P2;SDS_P1;SDS_P2;PMS_P1;PMS_P2;Temp;Humidity;BMP_temperature;BMP_pressure;BME280_temperature;BME280_humidity;BME280_pressure;Samples;Min_cycle;Max_cycle;Signal;HPM_P1;HPM_P2
2021/04/11 00:01:43;;;;;;;2.40;1.43;;;;;;;12.70;57.33;98006.47;6171842;22;102788;-89
2021/04/11 00:04:11;;;;;;;3.20;1.40;;;;;;;12.69;56.59;98010.09;6172183;22;103840;-89
2021/04/11 00:06:39;;;;;;;1.90;1.10;;;;;;;12.61;57.89;98002.00;6171946;22;103540;-88
2021/04/11 00:09:06;;;;;;;1.97;1.40;;;;;;;12.47;58.21;98005.06;6142323;22;102659;-87
2021/04/11 00:11:34;;;;;;;2.13;1.10;;;;;;;12.38;58.34;98000.63;6172728;22;102644;-89
2021/04/11 00:14:02;;;;;;;2.10;1.57;;;;;;;12.30;59.33;98003.09;6170730;22;104258;-86
2021/04/11 00:16:29;;;;;;;2.33;1.47;;;;;;;12.20;59.37;97997.81;6172342;22;104197;-87
2021/04/11 00:18:56;;;;;;;3.17;1.40;;;;;;;12.10;59.44;97992.50;6141614;22;102577;-88
2021/04/11 00:21:24;;;;;;;1.50;1.40;;;;;;;12.12;58.61;98002.97;6169808;22;102877;-87
2021/04/11 00:23:51;;;;;;;2.97;1.60;;;;;;;12.03;59.15;97999.31;6173311;22;105301;-87
2021/04/11 00:26:18;;;;;;;2.10;1.20;;;;;;;12.04;58.50;97993.03;6173111;22;104210;-87
2021/04/11 00:28:45;;;;;;;1.53;1.30;;;;;;;12.04;58.66;97993.03;6173946;22;102827;-89
2021/04/11 00:31:12;;;;;;;1.47;1.23;;;;;;;12.04;58.57;97993.03;6140964;22;102973;-87
2021/04/11 00:33:43;;;;;;;2.43;1.47;;;;;;;12.06;58.75;97990.28;6171032;22;103906;-88
2021/04/11 00:36:12;;;;;;;3.43;1.40;;;;;;;12.07;58.23;97987.47;6140688;22;102991;-88
2021/04/11 00:38:41;;;;;;;1.43;1.00;;;;;;;12.10;58.17;97995.16;6139816;22;102736;-87
2021/04/11 00:41:14;;;;;;;1.37;1.20;;;;;;;12.10;58.24;97987.19;6167028;22;102931;-85
2021/04/11 00:43:43;;;;;;;1.67;1.20;;;;;;;11.98;58.51;97990.97;6141663;22;103712;-89
2021/04/11 00:46:22;;;;;;;1.27;1.13;;;;;;;11.94;58.97;97984.25;6168387;22;103636;-88
2021/04/11 00:48:50;;;;;;;1.50;1.10;;;;;;;11.89;59.23;97986.47;6172197;22;102982;-87
2021/04/11 00:51:20;;;;;;;1.23;0.97;;;;;;;11.87;59.18;97985.78;6141859;22;102596;-87
2021/04/11 00:53:48;;;;;;;1.83;1.07;;;;;;;11.80;59.38;97984.63;6172756;22;104245;-86
2021/04/11 00:56:17;;;;;;;0.90;0.90;;;;;;;11.78;59.71;97986.59;6142550;22;103320;-88
2021/04/11 00:58:45;;;;;;;3.40;1.20;;;;;;;11.74;59.78;97993.13;6139911;22;102931;-86
2021/04/11 01:01:12;;;;;;;1.53;0.93;;;;;;;11.63;60.68;97977.31;6137048;22;103189;-87
2021/04/11 01:03:40;;;;;;;1.30;1.20;;;;;;;11.36;61.77;97974.44;6170458;22;103736;-89
2021/04/11 01:06:09;;;;;;;1.33;1.23;;;;;;;11.22;61.30;97978.28;6172874;22;104061;-88
2021/04/11 01:08:38;;;;;;;2.23;1.30;;;;;;;11.20;61.09;97974.91;6162169;22;102971;-86
2021/04/11 01:11:09;;;;;;;2.33;1.13;;;;;;;11.26;61.34;97969.09;6142671;22;102896;-86
2021/04/11 01:13:42;;;;;;;1.83;1.23;;;;;;;11.32;61.40;97960.63;6162073;22;103746;-89
2021/04/11 01:16:11;;;;;;;1.20;1.07;;;;;;;11.30;61.75;97948.53;6143047;22;103197;-88
2021/04/11 01:18:39;;;;;;;1.27;1.00;;;;;;;11.33;61.17;97953.53;6162196;22;102563;-88
2021/04/11 01:21:12;;;;;;;1.60;1.50;;;;;;;11.31;61.49;97955.50;6143100;22;102928;-86
2021/04/11 01:23:50;;;;;;;2.63;2.10;;;;;;;11.36;61.45;97953.28;6141457;22;108181;-86
2021/04/11 01:26:20;;;;;;;2.80;1.80;;;;;;;11.26;62.02;97957.69;6167618;22;103486;-89
2021/04/11 01:28:48;;;;;;;5.03;2.30;;;;;;;11.32;61.90;97950.06;6172669;22;102510;-87
2021/04/11 01:31:16;;;;;;;3.87;2.33;;;;;;;11.21;62.29;97944.03;6173868;22;103009;-87
2021/04/11 01:33:48;;;;;;;4.30;2.60;;;;;;;11.20;62.59;97943.19;6173379;22;103118;-89
2021/04/11 01:36:20;;;;;;;3.50;2.50;;;;;;;11.29;61.62;97936.25;6173252;22;103900;-87
2021/04/11 01:38:48;;;;;;;2.30;1.70;;;;;;;11.38;61.58;97932.81;6142976;22;103122;-88
2021/04/11 01:41:22;;;;;;;2.53;2.03;;;;;;;11.44;61.29;97941.06;6167825;22;102856;-85
2021/04/11 01:43:51;;;;;;;3.70;2.43;;;;;;;11.47;61.89;97940.81;6173694;22;103569;-88
2021/04/11 01:46:21;;;;;;;2.57;1.70;;;;;;;11.42;62.36;97948.31;6144031;22;102815;-88
2021/04/11 01:48:49;;;;;;;4.13;2.30;;;;;;;11.32;63.30;97942.13;6141577;22;102763;-88
2021/04/11 01:51:20;;;;;;;3.97;1.70;;;;;;;11.29;62.69;97942.41;6169336;22;104439;-86
2021/04/11 01:53:49;;;;;;;2.30;1.80;;;;;;;11.36;62.52;97938.25;6138841;22;104153;-88
2021/04/11 01:56:17;;;;;;;2.53;1.57;;;;;;;11.36;62.41;97932.97;6143503;22;103928;-87
2021/04/11 01:58:50;;;;;;;4.13;1.67;;;;;;;11.35;62.90;97935.72;6142701;22;103075;-87
2021/04/11 02:01:29;;;;;;;3.63;3.10;;;;;;;11.33;63.59;97937.69;6168621;22;102779;-86
2021/04/11 02:04:00;;;;;;;2.30;2.10;;;;;;;11.42;62.72;97943.03;6173415;22;103781;-86
2021/04/11 02:06:33;;;;;;;2.83;2.20;;;;;;;11.47;62.52;97947.91;6145842;22;104286;-88
2021/04/11 02:09:09;;;;;;;3.23;2.33;;;;;;;11.50;62.71;97940.53;6117426;22;102514;-88
2021/04/11 02:11:51;;;;;;;3.70;2.33;;;;;;;11.51;63.30;97936.91;6142173;22;102951;-86
2021/04/11 02:14:19;;;;;;;2.30;1.97;;;;;;;11.51;63.20;97936.06;6142353;22;102843;-86
2021/04/11 02:16:48;;;;;;;2.83;1.83;;;;;;;11.54;63.44;97936.63;6141641;22;104347;-88
2021/04/11 02:19:17;;;;;;;3.00;1.60;;;;;;;11.53;63.29;97931.50;6139837;22;102983;-88
2021/04/11 02:21:52;;;;;;;2.57;1.90;;;;;;;11.56;63.44;97941.81;6171842;22;103226;-88
2021/04/11 02:24:20;;;;;;;3.57;2.07;;;;;;;11.58;63.15;97937.19;6173967;22;104546;-88
2021/04/11 02:26:47;;;;;;;1.80;1.40;;;;;;;11.58;63.54;97938.03;6173971;22;104559;-88
2021/04/11 02:29:18;;;;;;;2.33;1.90;;;;;;;11.59;63.48;97938.88;6174515;22;102816;-87
2021/04/11 02:31:47;;;;;;;2.43;1.70;;;;;;;11.60;63.88;97937.91;6141745;22;103030;-88
2021/04/11 02:34:23;;;;;;;2.50;1.30;;;;;;;11.61;63.03;97931.66;6143604;22;105254;-89
2021/04/11 02:36:56;;;;;;;1.57;1.40;;;;;;;11.63;63.60;97934.97;6116882;22;105929;-87
2021/04/11 02:39:27;;;;;;;4.33;1.70;;;;;;;11.61;64.34;97929.84;6145168;22;102608;-87
2021/04/11 02:42:00;;;;;;;1.70;1.50;;;;;;;11.59;64.24;97928.31;6142020;22;102775;-88
2021/04/11 02:44:29;;;;;;;1.70;1.57;;;;;;;11.63;63.91;97927.06;6143809;22;105827;-88
2021/04/11 02:46:57;;;;;;;2.43;1.43;;;;;;;11.57;63.91;97923.13;6171319;22;106252;-86
2021/04/11 02:49:25;;;;;;;3.00;2.00;;;;;;;11.46;65.61;97922.41;6144093;22;102872;-87
2021/04/11 02:51:54;;;;;;;1.63;1.33;;;;;;;11.53;64.45;97928.84;6141453;22;102754;-87
2021/04/11 02:54:29;;;;;;;1.93;1.60;;;;;;;11.48;65.99;97917.84;6171016;22;104033;-85
2021/04/11 02:57:07;;;;;;;2.40;1.50;;;;;;;11.50;65.59;97915.88;6142298;22;104231;-86
2021/04/11 02:59:38;;;;;;;2.00;1.60;;;;;;;11.29;67.14;97917.75;6142692;22;102910;-87
2021/04/11 03:02:06;;;;;;;1.80;1.30;;;;;;;11.32;68.53;97914.84;6167614;22;102937;-89
2021/04/11 03:04:42;;;;;;;2.00;1.23;;;;;;;11.25;70.01;97908.44;6142274;22;103487;-88
2021/04/11 03:07:18;;;;;;;2.10;1.23;;;;;;;11.30;70.55;97908.88;6169015;22;104197;-90
2021/04/11 03:09:49;;;;;;;2.73;1.33;;;;;;;11.25;72.17;97898.69;6172173;22;103062;-86
2021/04/11 03:12:21;;;;;;;1.70;1.60;;;;;;;11.26;72.75;97904.81;6143348;22;107240;-88
2021/04/11 03:14:49;;;;;;;1.70;1.57;;;;;;;10.99;72.73;97893.03;6140136;22;104297;-89
2021/04/11 03:17:24;;;;;;;2.10;1.90;;;;;;;10.85;75.16;97906.59;6170769;22;103913;-90
2021/04/11 03:20:01;;;;;;;1.67;1.47;;;;;;;11.02;74.58;97898.06;6173473;22;102647;-88
2021/04/11 03:22:30;;;;;;;2.23;1.70;;;;;;;11.01;75.03;97899.00;6146589;22;102978;-90
2021/04/11 03:25:00;;;;;;;2.10;1.40;;;;;;;10.82;74.62;97900.72;6174184;22;103987;-91
2021/04/11 03:27:36;;;;;;;1.70;1.13;;;;;;;11.01;72.40;97900.81;6146918;22;103618;-89
2021/04/11 03:30:11;;;;;;;2.43;1.60;;;;;;;10.99;73.19;97895.66;6142265;22;102934;-90
2021/04/11 03:32:44;;;;;;;2.80;1.63;;;;;;;10.88;72.85;97895.75;6117078;22;103256;-88
2021/04/11 03:35:15;;;;;;;3.10;1.60;;;;;;;10.96;73.85;97903.03;6167435;22;103241;-90
2021/04/11 03:37:46;;;;;;;2.33;1.93;;;;;;;10.65;73.35;97901.31;6116538;22;106338;-89
2021/04/11 03:40:16;;;;;;;3.53;1.67;;;;;;;10.59;74.01;97899.19;6141343;22;103052;-88
2021/04/11 03:42:47;;;;;;;1.80;1.70;;;;;;;10.79;72.79;97907.13;6140073;22;102920;-88
2021/04/11 03:45:16;;;;;;;10.63;2.33;;;;;;;10.68;72.88;97896.63;6142941;22;103310;-88
2021/04/11 03:47:52;;;;;;;2.70;2.23;;;;;;;10.58;72.77;97893.09;6173127;22;104516;-88
2021/04/11 03:50:23;;;;;;;3.70;2.40;;;;;;;10.59;72.90;97902.69;6143879;22;102991;-87
2021/04/11 03:53:03;;;;;;;2.40;2.10;;;;;;;10.48;73.99;97905.41;6142669;22;102695;-89
2021/04/11 03:55:36;;;;;;;4.10;2.63;;;;;;;10.47;74.20;97903.72;6146680;22;105278;-89
2021/04/11 03:58:09;;;;;;;3.77;2.73;;;;;;;10.27;74.36;97912.50;6142356;22;103649;-88
2021/04/11 04:00:46;;;;;;;4.10;2.90;;;;;;;10.42;73.72;97904.09;6161087;22;102862;-88
2021/04/11 04:03:20;;;;;;;3.80;3.20;;;;;;;10.30;73.67;97904.31;6142582;22;102585;-90
2021/04/11 04:05:49;;;;;;;5.07;2.83;;;;;;;10.25;74.62;97909.13;6142571;22;103620;-87
2021/04/11 04:08:17;;;;;;;4.03;3.10;;;;;;;10.51;73.96;97902.50;6142107;22;103178;-87
2021/04/11 04:10:57;;;;;;;3.30;3.00;;;;;;;10.44;73.96;97909.28;6172059;22;102999;-88
2021/04/11 04:13:42;;;;;;;2.90;2.70;;;;;;;10.60;73.72;97904.38;6144652;22;103363;-89
2021/04/11 04:16:18;;;;;;;3.07;2.03;;;;;;;10.66;73.36;97909.13;6142168;22;103351;-88
2021/04/11 04:19:23;;;;;;;3.20;2.43;;;;;;;10.67;74.64;97902.88;6117152;22;106511;-88
2021/04/11 04:22:02;;;;;;;2.20;2.00;;;;;;;10.76;73.65;97912.66;6141560;22;103004;-90
2021/04/11 04:24:50;;;;;;;5.87;3.10;;;;;;;10.61;75.13;97918.41;6142195;22;102848;-88
2021/04/11 04:27:46;;;;;;;3.37;2.80;;;;;;;10.55;74.07;97913.66;6144104;22;104388;-87
2021/04/11 04:30:22;;;;;;;2.67;2.33;;;;;;;10.58;74.58;97910.75;6142973;22;104420;-88
2021/04/11 04:33:40;;;;;;;3.60;3.30;;;;;;;10.52;74.34;97919.19;6116184;22;102874;-88
2021/04/11 04:36:22;;;;;;;3.03;2.77;;;;;;;10.34;74.28;97922.41;6116821;22;103205;-88
2021/04/11 04:39:04;;;;;;;4.17;3.43;;;;;;;10.38;74.65;97923.84;6165600;22;103579;-89
2021/04/11 04:41:39;;;;;;;4.60;3.30;;;;;;;10.31;74.80;97906.81;6172911;22;103606;-88
2021/04/11 04:44:21;;;;;;;4.30;3.53;;;;;;;10.34;74.71;97916.28;6142592;22;102558;-87
2021/04/11 04:47:02;;;;;;;6.17;3.23;;;;;;;10.47;74.09;97919.56;6142803;22;102698;-89
2021/04/11 04:49:41;;;;;;;5.00;3.50;;;;;;;10.41;73.77;97912.16;6146089;22;105231;-87
2021/04/11 04:52:17;;;;;;;3.63;3.03;;;;;;;10.35;73.81;97915.31;6116067;22;106118;-88
2021/04/11 04:54:50;;;;;;;5.67;3.17;;;;;;;10.40;74.11;97915.75;6141030;22;103112;-88
2021/04/11 04:57:27;;;;;;;4.87;3.23;;;;;;;10.37;74.10;97913.38;6142967;22;103066;-88
2021/04/11 05:00:04;;;;;;;4.87;3.20;;;;;;;10.42;74.23;97919.09;6140810;22;106073;-89
2021/04/11 05:02:46;;;;;;;5.00;3.00;;;;;;;10.38;73.92;97921.19;6138993;22;104403;-86
2021/04/11 05:05:15;;;;;;;3.67;3.00;;;;;;;10.45;73.72;97913.56;6167626;22;103108;-87
2021/04/11 05:07:56;;;;;;;5.77;3.30;;;;;;;10.53;74.15;97911.13;6141485;22;102815;-89
2021/04/11 05:10:27;;;;;;;5.10;3.53;;;;;;;10.41;74.72;97922.72;6143720;22;104061;-84
2021/04/11 05:13:13;;;;;;;3.27;2.97;;;;;;;10.56;73.12;97916.16;6115313;22;103751;-84
2021/04/11 05:15:51;;;;;;;5.07;3.63;;;;;;;10.55;73.36;97922.41;6108762;22;102575;-86
2021/04/11 05:18:26;;;;;;;3.87;3.20;;;;;;;10.71;73.34;97917.50;6142391;22;102915;-79
2021/04/11 05:21:18;;;;;;;3.43;3.13;;;;;;;10.80;72.20;97919.38;6139068;22;103531;-81
2021/04/11 05:23:52;;;;;;;3.70;3.40;;;;;;;10.66;73.38;97919.69;6140252;22;103333;-79
2021/04/11 05:26:25;;;;;;;2.77;2.53;;;;;;;10.86;71.90;97913.53;6142551;22;102994;-79
2021/04/11 05:29:04;;;;;;;3.57;3.07;;;;;;;11.02;72.06;97919.19;6090553;22;102892;-80
2021/04/11 05:31:35;;;;;;;4.27;3.00;;;;;;;11.04;71.78;97911.97;6110133;23;103893;-80
2021/04/11 05:34:06;;;;;;;3.10;2.80;;;;;;;11.16;71.06;97917.16;6113009;23;103167;-80
2021/04/11 05:36:48;;;;;;;2.80;2.53;;;;;;;11.24;71.45;97922.59;6061516;23;102869;-80
2021/04/11 05:39:27;;;;;;;4.07;2.90;;;;;;;11.23;72.39;97919.13;6113961;23;102728;-83
2021/04/11 05:42:01;;;;;;;8.37;4.20;;;;;;;11.09;72.66;97927.41;6086125;23;103274;-79
2021/04/11 05:44:35;;;;;;;4.27;3.87;;;;;;;10.99;72.73;97934.47;6111730;23;106572;-80
2021/04/11 05:47:11;;;;;;;4.27;3.60;;;;;;;11.16;72.83;97931.22;6060798;23;102885;-79
2021/04/11 05:49:49;;;;;;;3.27;2.97;;;;;;;11.35;72.33;97926.00;6086415;23;102749;-82
2021/04/11 05:52:23;;;;;;;3.93;3.63;;;;;;;11.24;73.77;97930.53;6112044;23;104282;-80
2021/04/11 05:54:53;;;;;;;3.10;2.87;;;;;;;11.38;73.42;97931.03;6113748;23;103089;-87
2021/04/11 05:57:24;;;;;;;4.73;3.97;;;;;;;11.41;75.01;97929.91;6112514;23;103220;-83
2021/04/11 05:59:55;;;;;;;4.20;3.80;;;;;;;11.22;74.48;97935.13;6114092;23;103155;-81
2021/04/11 06:02:36;;;;;;;5.07;4.20;;;;;;;11.39;72.69;97930.06;6113589;23;103731;-80
2021/04/11 06:05:08;;;;;;;4.17;3.57;;;;;;;11.59;73.01;97934.41;6114485;23;104456;-83
2021/04/11 06:07:43;;;;;;;4.70;3.43;;;;;;;11.76;72.65;97926.84;6114386;23;102464;-79
2021/04/11 06:10:16;;;;;;;5.73;4.77;;;;;;;11.93;74.50;97928.81;6114706;23;102942;-79
2021/04/11 06:12:52;;;;;;;10.67;7.80;;;;;;;12.01;75.40;97924.47;6086411;23;105937;-81
2021/04/11 06:20:58;;;;;;;5.13;4.30;;;;;;;12.16;72.72;97919.63;6121800;22;103333;-74
2021/04/11 06:23:31;;;;;;;5.83;4.47;;;;;;;12.24;72.64;97919.75;6111146;23;104860;-72
2021/04/11 06:26:06;;;;;;;6.93;4.87;;;;;;;12.38;71.85;97921.16;6101205;23;105247;-72
2021/04/11 06:28:47;;;;;;;4.07;3.60;;;;;;;12.49;70.24;97918.38;6110356;23;102920;-76
2021/04/11 06:31:19;;;;;;;6.87;4.23;;;;;;;12.43;69.58;97914.47;6110002;23;104419;-74
2021/04/11 06:33:50;;;;;;;5.00;3.20;;;;;;;12.62;69.56;97913.59;6110258;23;103845;-73
2021/04/11 06:36:22;;;;;;;5.43;3.47;;;;;;;12.68;69.11;97910.38;6103791;23;103780;-73
2021/04/11 06:38:54;;;;;;;3.60;3.10;;;;;;;12.91;68.54;97903.78;6109631;23;102982;-72
2021/04/11 06:41:48;;;;;;;3.70;2.83;;;;;;;12.92;68.15;97904.59;6110174;23;102854;-73
2021/04/11 06:45:07;;;;;;;2.80;2.33;;;;;;;13.21;67.92;97905.34;6110729;23;103983;-76
2021/04/11 06:47:59;;;;;;;2.67;2.43;;;;;;;13.39;67.67;97900.13;6110485;23;103765;-74
2021/04/11 06:50:43;;;;;;;4.33;3.20;;;;;;;13.07;67.32;97888.13;6108171;23;103451;-74
2021/04/11 06:53:40;;;;;;;4.03;3.30;;;;;;;13.06;66.64;97896.16;6110149;23;102728;-76
2021/04/11 06:56:39;;;;;;;3.80;3.33;;;;;;;13.34;66.63;97898.72;6108796;23;104985;-75
2021/04/11 06:59:18;;;;;;;6.20;2.93;;;;;;;13.63;64.51;97900.38;6077750;22;103765;-74
2021/04/11 07:02:24;;;;;;;3.33;2.90;;;;;;;13.64;64.75;97896.75;6140469;22;103014;-75
2021/04/11 07:05:10;;;;;;;4.67;2.80;;;;;;;13.61;64.77;97897.91;6137629;22;102963;-74
2021/04/11 07:08:26;;;;;;;4.70;2.77;;;;;;;13.73;65.53;97901.16;6138114;22;104466;-74
2021/04/11 07:11:18;;;;;;;4.63;3.17;;;;;;;13.60;63.44;97901.53;6137116;22;103581;-74
2021/04/11 07:14:28;;;;;;;3.00;2.47;;;;;;;13.72;62.71;97903.00;6137610;22;103659;-75
2021/04/11 07:17:19;;;;;;;3.17;2.20;;;;;;;13.81;62.07;97906.56;6109396;22;103443;-74
2021/04/11 07:20:13;;;;;;;2.77;2.30;;;;;;;13.91;61.84;97915.28;6120999;22;103808;-75
2021/04/11 07:23:03;;;;;;;3.03;2.30;;;;;;;13.87;60.52;97895.31;6133615;22;106503;-74
2021/04/11 07:25:43;;;;;;;3.90;2.83;;;;;;;13.90;60.69;97903.84;6132523;22;103406;-74
2021/04/11 07:28:29;;;;;;;2.53;2.33;;;;;;;14.07;60.85;97904.84;6138040;22;102906;-74
2021/04/11 07:31:16;;;;;;;3.10;2.40;;;;;;;14.12;60.45;97897.22;6135037;22;103359;-74
2021/04/11 07:34:14;;;;;;;2.40;2.20;;;;;;;14.35;59.89;97898.47;6133960;22;103196;-74
2021/04/11 07:36:53;;;;;;;2.50;2.10;;;;;;;14.42;60.15;97888.91;6133168;22;103215;-74
2021/04/11 07:47:31;;;;;;;3.00;2.20;;;;;;;15.18;59.26;97906.84;6091533;22;104441;-75
2021/04/11 07:50:24;;;;;;;2.33;2.00;;;;;;;15.64;58.41;97901.91;6107137;23;103014;-75
2021/04/11 07:53:06;;;;;;;3.50;2.60;;;;;;;15.88;58.94;97914.50;6061522;23;103069;-76
2021/04/11 07:55:46;;;;;;;4.20;2.43;;;;;;;16.28;56.03;97908.38;6112492;23;103792;-77
2021/04/11 07:58:34;;;;;;;3.43;2.27;;;;;;;17.17;54.47;97905.66;6113622;23;104756;-78
2021/04/11 08:01:21;;;;;;;2.37;1.90;;;;;;;17.09;53.58;97911.03;6113238;23;102973;-77
2021/04/11 08:04:09;;;;;;;3.27;1.90;;;;;;;17.03;54.64;97901.88;6105954;23;102605;-78
2021/04/11 08:06:56;;;;;;;3.17;2.10;;;;;;;17.83;51.26;97898.06;6109796;23;104148;-78
2021/04/11 08:09:35;;;;;;;2.50;1.63;;;;;;;18.87;46.76;97901.00;6080846;23;103260;-86
2021/04/11 08:12:30;;;;;;;1.97;1.30;;;;;;;18.87;47.77;97903.69;6105406;23;104264;-85
2021/04/11 08:15:10;;;;;;;2.80;1.70;;;;;;;18.04;49.03;97896.63;6079153;23;103182;-79
2021/04/11 08:17:50;;;;;;;1.40;1.30;;;;;;;18.33;47.88;97892.22;6071812;23;103175;-76
2021/04/11 08:20:42;;;;;;;1.87;1.30;;;;;;;18.36;47.82;97899.06;6066209;23;107067;-82
2021/04/11 08:24:00;;;;;;;2.60;1.80;;;;;;;19.02;45.34;97899.19;6105014;23;103095;-78
2021/04/11 08:27:07;;;;;;;3.33;1.30;;;;;;;18.50;47.09;97887.63;6106860;23;103089;-77
2021/04/11 08:29:56;;;;;;;7.03;1.23;;;;;;;18.91;49.48;97888.94;6104043;23;104632;-78
2021/04/11 08:33:08;;;;;;;1.93;0.83;;;;;;;19.35;45.63;97885.44;6078428;23;103177;-75
2021/04/11 08:36:04;;;;;;;3.20;1.10;;;;;;;19.51;45.37;97890.63;6034351;23;104349;-76
2021/04/11 08:38:52;;;;;;;0.80;0.80;;;;;;;19.90;45.14;97890.28;6079439;23;103132;-77
2021/04/11 08:41:58;;;;;;;7.15;1.15;;;;;;;19.24;45.26;97892.09;6056240;23;104632;-77
2021/04/11 08:44:40;;;;;;;1.63;1.20;;;;;;;19.59;44.41;97883.31;6054338;23;104063;-76
2021/04/11 08:47:23;;;;;;;2.28;1.17;;;;;;;19.51;44.17;97874.53;6054050;23;102645;-74
2021/04/11 08:49:57;;;;;;;1.10;1.00;;;;;;;20.12;45.55;97882.09;6110485;23;102856;-75
2021/04/11 08:52:34;;;;;;;2.72;0.90;;;;;;;19.84;45.27;97883.84;6092738;23;103894;-74
2021/04/11 08:55:13;;;;;;;2.67;0.93;;;;;;;19.84;44.78;97881.16;6066389;23;107201;-76
2021/04/11 08:58:03;;;;;;;1.10;1.00;;;;;;;19.99;43.98;97879.25;6111214;23;103197;-75
2021/04/11 09:00:39;;;;;;;1.38;0.90;;;;;;;20.03;43.93;97880.56;6113020;23;103163;-74
2021/04/11 09:03:30;;;;;;;1.30;1.00;;;;;;;19.14;44.52;97882.69;6110631;23;105670;-73
2021/04/11 09:06:06;;;;;;;0.70;0.70;;;;;;;19.51;44.62;97878.06;6109248;23;103122;-73
2021/04/11 09:08:36;;;;;;;1.38;0.70;;;;;;;19.04;45.45;97878.41;6112853;23;102442;-75
2021/04/11 09:11:21;;;;;;;2.22;1.10;;;;;;;18.86;45.31;97885.94;6112237;23;103224;-74
2021/04/11 09:14:00;;;;;;;2.25;1.00;;;;;;;18.80;45.54;97877.84;6111784;23;103991;-75
2021/04/11 09:16:39;;;;;;;1.45;0.95;;;;;;;18.98;45.22;97872.94;6111009;23;104026;-76
2021/04/11 09:19:15;;;;;;;2.13;1.15;;;;;;;19.02;44.87;97869.75;6109835;23;102942;-77
2021/04/11 09:22:19;;;;;;;1.52;1.00;;;;;;;19.40;45.02;97877.69;6083380;23;103026;-75
2021/04/11 09:24:53;;;;;;;1.48;0.80;;;;;;;19.07;45.37;97874.53;6108761;23;104877;-79
2021/04/11 09:28:06;;;;;;;2.60;1.13;;;;;;;19.00;44.91;97885.13;6075466;23;103622;-82
2021/04/11 09:31:06;;;;;;;2.60;1.20;;;;;;;18.98;45.24;97872.94;6050639;23;102632;-81
2021/04/11 09:33:45;;;;;;;2.00;0.90;;;;;;;18.92;45.12;97881.72;6104873;23;103695;-81
2021/04/11 09:36:24;;;;;;;0.82;0.80;;;;;;;18.45;45.39;97889.97;6103252;23;105803;-82
2021/04/11 09:39:51;;;;;;;1.50;0.95;;;;;;;18.61;45.54;97873.81;6078647;23;105746;-84
2021/04/11 09:42:38;;;;;;;1.35;1.00;;;;;;;18.71;45.60;97886.94;5958315;23;103980;-81
2021/04/11 09:45:23;;;;;;;3.67;0.85;;;;;;;18.70;45.42;97886.09;6069630;23;103102;-82
2021/04/11 09:48:10;;;;;;;1.65;0.88;;;;;;;18.48;46.03;97878.94;6082660;23;104131;-82
2021/04/11 09:50:48;;;;;;;2.70;0.85;;;;;;;18.58;45.56;97882.22;6089903;23;104612;-84
2021/04/11 09:53:59;;;;;;;1.30;0.90;;;;;;;19.23;44.75;97884.25;6102929;23;103106;-82
2021/04/11 09:56:31;;;;;;;2.58;0.80;;;;;;;19.28;44.49;97873.81;6103097;23;103331;-83
2021/04/11 09:59:30;;;;;;;1.55;1.10;;;;;;;19.27;44.09;97872.13;6085367;23;103795;-80
2021/04/11 10:02:07;;;;;;;2.53;1.00;;;;;;;20.15;43.71;97862.91;6101984;23;103362;-81
2021/04/11 10:04:48;;;;;;;1.70;0.80;;;;;;;20.15;42.93;97868.28;6076267;23;103128;-80
2021/04/11 10:08:01;;;;;;;2.20;1.00;;;;;;;20.43;42.26;97870.25;6102002;23;103663;-81
2021/04/11 10:10:42;;;;;;;1.30;0.93;;;;;;;20.64;41.58;97856.81;6035432;23;103781;-80
2021/04/11 10:13:17;;;;;;;1.90;1.10;;;;;;;20.66;41.61;97860.94;6102233;23;104751;-77
2021/04/11 10:15:57;;;;;;;1.55;0.88;;;;;;;20.78;41.31;97864.75;6063400;23;103416;-82
2021/04/11 10:19:05;;;;;;;2.47;1.08;;;;;;;20.73;42.09;97866.38;6104204;23;103009;-79
2021/04/11 10:21:42;;;;;;;2.85;1.20;;;;;;;21.27;40.79;97853.16;6104397;23;103346;-78
2021/04/11 10:24:25;;;;;;;3.92;1.15;;;;;;;21.64;40.91;97843.81;6103860;23;103652;-76
2021/04/11 10:27:01;;;;;;;1.17;0.98;;;;;;;21.81;39.80;97853.19;6102638;23;104487;-77
2021/04/11 10:29:32;;;;;;;1.50;0.90;;;;;;;21.44;40.40;97843.72;6103840;23;103216;-77
2021/04/11 10:32:07;;;;;;;2.40;0.85;;;;;;;21.19;40.36;97856.81;6072103;23;104257;-78
2021/04/11 10:34:42;;;;;;;2.45;1.20;;;;;;;20.84;41.04;97844.38;6095460;23;103245;-80
2021/04/11 10:37:19;;;;;;;1.35;0.90;;;;;;;20.65;40.97;97853.09;6101467;23;103561;-80
2021/04/11 10:40:01;;;;;;;1.40;1.00;;;;;;;20.19;43.07;97849.97;6103080;23;103154;-80
2021/04/11 10:42:40;;;;;;;2.60;1.65;;;;;;;19.71;42.89;97848.81;6105824;23;103768;-73
2021/04/11 10:45:30;;;;;;;3.65;1.10;;;;;;;19.85;42.12;97853.31;6108947;23;103825;-78
2021/04/11 10:48:42;;;;;;;2.25;1.20;;;;;;;19.62;42.54;97841.94;6104408;23;103719;-78
2021/04/11 10:51:28;;;;;;;1.75;1.23;;;;;;;19.77;42.91;97853.44;6106311;23;103396;-75
2021/04/11 10:54:12;;;;;;;1.55;1.05;;;;;;;19.59;42.42;97845.81;6055859;23;104564;-74
2021/04/11 10:57:01;;;;;;;2.90;1.13;;;;;;;19.34;43.30;97843.63;6079635;23;104543;-74
2021/04/11 11:00:02;;;;;;;3.85;1.20;;;;;;;19.33;42.62;97842.78;6082581;23;103349;-75
2021/04/11 11:02:53;;;;;;;1.45;0.98;;;;;;;19.35;42.91;97832.72;6108491;23;102942;-75
2021/04/11 11:05:37;;;;;;;1.52;1.10;;;;;;;19.19;42.82;97842.78;6109005;23;105583;-75
2021/04/11 11:08:28;;;;;;;1.25;1.00;;;;;;;19.09;43.27;97835.03;6108571;23;105054;-75
2021/04/11 11:11:25;;;;;;;1.90;1.00;;;;;;;19.21;43.11;97840.75;6110361;23;103074;-75
2021/04/11 11:14:08;;;;;;;1.70;1.02;;;;;;;19.37;43.24;97837.88;6096201;23;104374;-74
2021/04/11 11:17:02;;;;;;;2.75;1.15;;;;;;;18.99;43.01;97837.16;6104469;23;103584;-74
2021/04/11 11:19:57;;;;;;;2.38;1.33;;;;;;;19.02;43.43;97834.94;6107397;23;104931;-74
2021/04/11 11:22:54;;;;;;;1.58;1.27;;;;;;;18.70;44.02;97837.94;6107586;23;103109;-74
2021/04/11 11:25:48;;;;;;;3.15;1.20;;;;;;;18.83;43.76;97840.84;6071853;23;102744;-74
2021/04/11 11:28:50;;;;;;;3.30;1.40;;;;;;;18.76;43.66;97842.56;6034843;23;103778;-76
2021/04/11 11:31:36;;;;;;;2.90;2.50;;;;;;;18.59;43.63;97841.06;6082437;23;105072;-75
2021/04/11 11:34:25;;;;;;;2.35;1.35;;;;;;;18.62;43.55;97830.00;6098165;23;104560;-74
2021/04/11 11:37:05;;;;;;;1.40;1.20;;;;;;;18.73;44.27;97842.94;6098455;23;103383;-74
2021/04/11 11:39:40;;;;;;;2.65;1.23;;;;;;;18.91;44.14;97832.72;6096483;23;104870;-75
2021/04/11 11:42:21;;;;;;;2.70;1.40;;;;;;;18.68;43.99;97833.81;6100800;23;107023;-74
2021/04/11 11:45:02;;;;;;;2.88;1.20;;;;;;;19.23;43.79;97839.53;6074784;23;103081;-74
2021/04/11 11:47:38;;;;;;;3.00;1.40;;;;;;;19.11;44.01;97831.13;6097817;23;103244;-74
2021/04/11 11:50:12;;;;;;;2.45;1.52;;;;;;;19.43;43.38;97837.16;6097743;23;104933;-73
2021/04/11 11:52:45;;;;;;;3.13;2.30;;;;;;;19.76;43.05;97830.34;6099046;23;103415;-74
2021/04/11 11:55:20;;;;;;;2.42;1.60;;;;;;;19.93;43.04;97833.63;6073299;23;102990;-74
2021/04/11 11:57:56;;;;;;;1.70;1.10;;;;;;;19.98;42.70;97829.38;6101794;23;103447;-76
2021/04/11 12:00:29;;;;;;;2.58;1.10;;;;;;;19.95;44.59;97827.06;6102456;23;103956;-77
2021/04/11 12:03:22;;;;;;;1.30;0.80;;;;;;;18.86;47.68;97820.91;6103717;23;103689;-77
2021/04/11 12:06:00;;;;;;;1.33;1.10;;;;;;;19.00;48.26;97814.75;6104076;23;103326;-77
2021/04/11 12:08:39;;;;;;;3.10;1.40;;;;;;;18.92;48.35;97810.28;6106205;23;103129;-78
2021/04/11 12:11:12;;;;;;;2.25;1.00;;;;;;;18.93;48.01;97808.44;6105680;23;103684;-78
2021/04/11 12:13:47;;;;;;;2.60;0.93;;;;;;;18.91;47.18;97803.28;6084846;23;104382;-78
2021/04/11 12:16:22;;;;;;;2.25;1.10;;;;;;;18.75;47.89;97799.97;6103000;23;102908;-78
2021/04/11 12:18:56;;;;;;;2.70;1.52;;;;;;;18.73;48.38;97799.28;6105100;23;102928;-78
2021/04/11 12:21:33;;;;;;;2.67;1.50;;;;;;;19.20;47.80;97793.59;6105388;23;105035;-78
2021/04/11 12:24:08;;;;;;;3.58;2.00;;;;;;;19.60;47.89;97790.38;6051861;23;106607;-78
2021/04/11 12:26:47;;;;;;;2.85;1.75;;;;;;;20.17;46.25;97793.88;6077493;23;103564;-79
2021/04/11 12:29:20;;;;;;;3.40;2.08;;;;;;;19.36;48.47;97793.38;6109103;23;102979;-78
2021/04/11 12:31:55;;;;;;;2.10;1.13;;;;;;;19.49;48.09;97797.06;6053311;23;106005;-81
2021/04/11 12:34:34;;;;;;;2.35;1.23;;;;;;;18.92;48.62;97794.22;6077807;23;106074;-83